Time;durP1;ratioP1;P1;durP2;ratioP2;P2;SDS_P1;SDS_P2;PMS_P1;PMS_P2;Temp;Humidity;BMP_temperature;BMP_pressure;BME280_temperature;BME280_humidity;BME280_pressure;Samples;Min_cycle;Max_cycle;Signal;HPM_P1;HPM_P2
2022/12/23 00:00:57;;;;;;;2.60;1.10;;;12.30;99.90;;;;;;5097928;28;20231;-59
2022/12/23 00:03:25;;;;;;;3.03;0.90;;;12.30;99.90;;;;;;5098087;28;20238;-59
2022/12/23 00:05:51;;;;;;;3.70;1.10;;;12.30;99.90;;;;;;5098089;28;20216;-59
2022/12/23 00:08:19;;;;;;;2.30;0.77;;;12.40;99.90;;;;;;5097534;28;20579;-59
2022/12/23 00:10:48;;;;;;;4.53;1.20;;;12.30;99.90;;;;;;5097625;28;20228;-60
2022/12/23 00:16:04;;;;;;;1.67;0.97;;;12.20;99.90;;;;;;5096700;28;20245;-59
2022/12/23 00:18:31;;;;;;;1.57;0.80;;;12.10;99.90;;;;;;5096536;28;20232;-59
2022/12/23 00:20:59;;;;;;;3.13;0.90;;;12.10;99.90;;;;;;5095695;28;20204;-60
2022/12/23 00:23:26;;;;;;;2.80;0.80;;;12.00;99.90;;;;;;5095721;28;20215;-59
2022/12/23 00:25:54;;;;;;;1.87;1.00;;;12.00;99.90;;;;;;5095744;28;20231;-59
2022/12/23 00:28:23;;;;;;;2.17;0.60;;;11.90;99.90;;;;;;5095060;28;20262;-59
2022/12/23 00:30:51;;;;;;;1.87;0.60;;;12.00;99.90;;;;;;5095618;28;20224;-60
2022/12/23 00:33:21;;;;;;;1.47;0.50;;;12.10;99.90;;;;;;5094908;28;20204;-59
2022/12/23 00:35:48;;;;;;;1.77;0.60;;;12.10;99.90;;;;;;5095158;28;20204;-60
2022/12/23 00:38:16;;;;;;;3.20;0.73;;;12.10;99.90;;;;;;5094390;28;20672;-59
2022/12/23 00:43:29;;;;;;;2.63;0.80;;;12.10;99.90;;;;;;5094579;28;20203;-59
2022/12/23 00:45:56;;;;;;;0.73;0.57;;;12.10;99.90;;;;;;5094658;28;20656;-59
2022/12/23 00:51:07;;;;;;;1.70;0.60;;;12.10;99.90;;;;;;5094303;28;20355;-60
2022/12/23 00:53:33;;;;;;;1.60;0.50;;;12.20;99.90;;;;;;5094309;28;20228;-59
2022/12/23 00:56:00;;;;;;;1.00;0.47;;;12.10;99.90;;;;;;5094039;28;20212;-59
2022/12/23 00:58:30;;;;;;;2.90;0.60;;;12.30;99.90;;;;;;5093758;28;20208;-59
2022/12/23 01:06:26;;;;;;;1.03;0.50;;;12.30;99.90;;;;;;5093906;28;20215;-60
2022/12/23 01:08:53;;;;;;;1.10;0.50;;;12.20;99.90;;;;;;5093388;28;20711;-60
2022/12/23 01:11:20;;;;;;;1.27;0.53;;;12.20;99.90;;;;;;5093485;28;20228;-59
2022/12/23 01:13:48;;;;;;;2.57;0.67;;;12.30;99.90;;;;;;5093605;28;20699;-59
2022/12/23 01:16:15;;;;;;;0.80;0.50;;;12.40;99.90;;;;;;5093699;28;20208;-60
2022/12/23 01:18:41;;;;;;;0.87;0.40;;;12.40;99.90;;;;;;5093225;28;20302;-59
2022/12/23 01:21:10;;;;;;;1.43;0.40;;;12.40;99.90;;;;;;5093500;28;20200;-60
2022/12/23 01:23:37;;;;;;;2.50;0.90;;;12.50;99.90;;;;;;5093558;28;20616;-60
2022/12/23 01:26:06;;;;;;;0.80;0.40;;;12.40;99.90;;;;;;5093022;28;20212;-60
2022/12/23 01:28:35;;;;;;;1.53;0.50;;;12.50;99.90;;;;;;5092646;28;20664;-60
2022/12/23 01:31:04;;;;;;;1.73;0.50;;;12.50;99.90;;;;;;5093423;28;20235;-60
2022/12/23 01:33:32;;;;;;;0.83;0.27;;;12.50;99.90;;;;;;5093298;28;20209;-60
2022/12/23 01:36:00;;;;;;;1.33;0.50;;;12.50;99.90;;;;;;5093173;28;20650;-60
2022/12/23 01:38:27;;;;;;;1.57;0.53;;;12.60;99.90;;;;;;5092337;28;20729;-59
2022/12/23 01:40:54;;;;;;;1.73;0.40;;;12.70;99.90;;;;;;5093202;28;20741;-59
2022/12/23 01:43:21;;;;;;;1.53;0.40;;;12.70;99.90;;;;;;5092768;28;20621;-59
2022/12/23 01:45:48;;;;;;;0.60;0.23;;;12.70;99.90;;;;;;5093034;28;20197;-59
2022/12/23 01:48:21;;;;;;;0.47;0.30;;;12.70;99.90;;;;;;5092751;28;20214;-59
2022/12/23 01:50:51;;;;;;;0.80;0.40;;;12.70;99.90;;;;;;5092700;28;20227;-60
2022/12/23 01:53:21;;;;;;;0.60;0.40;;;12.60;99.90;;;;;;5093127;28;20209;-60
2022/12/23 01:55:51;;;;;;;0.53;0.20;;;12.60;99.90;;;;;;5092619;28;20690;-60
2022/12/23 01:58:24;;;;;;;0.70;0.30;;;12.80;99.90;;;;;;5092514;28;20200;-60
2022/12/23 02:03:43;;;;;;;0.90;0.43;;;12.70;99.90;;;;;;5093150;28;20748;-60
2022/12/23 02:12:25;;;;;;;0.80;0.30;;;12.80;99.90;;;;;;5092538;28;20231;-59
2022/12/23 02:18:03;;;;;;;0.20;0.20;;;12.90;99.90;;;;;;5092055;28;20198;-60
2022/12/23 02:21:09;;;;;;;1.17;0.30;;;12.90;99.90;;;;;;5092563;28;20348;-60
2022/12/23 02:24:12;;;;;;;0.40;0.23;;;12.90;99.90;;;;;;5092660;28;20211;-60
2022/12/23 02:27:07;;;;;;;1.03;0.30;;;12.80;99.90;;;;;;5088862;28;20210;-60
2022/12/23 02:30:15;;;;;;;0.23;0.10;;;12.80;99.90;;;;;;5091719;28;20285;-60
2022/12/23 02:33:08;;;;;;;4.23;0.20;;;12.80;99.90;;;;;;5092602;28;20223;-60
2022/12/23 02:35:43;;;;;;;1.17;0.30;;;12.90;99.90;;;;;;5088996;28;20215;-60
2022/12/23 02:38:14;;;;;;;1.83;0.30;;;12.90;99.90;;;;;;5094518;28;20574;-60
2022/12/23 02:40:49;;;;;;;0.87;0.30;;;13.00;99.90;;;;;;5096657;28;20231;-60
2022/12/23 02:43:23;;;;;;;1.17;0.30;;;12.90;99.90;;;;;;5096645;28;20200;-60
2022/12/23 02:45:56;;;;;;;0.83;0.30;;;13.00;99.90;;;;;;5096359;28;20563;-60
2022/12/23 02:48:33;;;;;;;0.87;0.23;;;13.00;99.90;;;;;;5095869;28;20208;-60
2022/12/23 02:51:02;;;;;;;0.47;0.30;;;13.00;99.90;;;;;;5096360;28;20207;-60
2022/12/23 02:53:33;;;;;;;0.23;0.23;;;12.90;99.90;;;;;;5096611;28;20261;-60
2022/12/23 02:56:03;;;;;;;0.23;0.10;;;12.90;99.90;;;;;;5096421;28;20287;-60
2022/12/23 02:58:32;;;;;;;1.63;0.37;;;12.90;99.90;;;;;;5096074;28;20573;-60
2022/12/23 03:01:02;;;;;;;1.13;0.10;;;13.00;99.90;;;;;;5096323;28;20437;-60
2022/12/23 03:03:31;;;;;;;1.27;0.37;;;13.10;99.90;;;;;;5096118;28;20208;-60
2022/12/23 03:05:58;;;;;;;0.20;0.10;;;13.00;99.90;;;;;;5095770;28;20258;-60
2022/12/23 03:08:28;;;;;;;0.60;0.30;;;13.00;99.90;;;;;;5095628;28;20626;-60
2022/12/23 03:11:03;;;;;;;0.20;0.20;;;13.10;99.90;;;;;;5095811;28;20331;-60
2022/12/23 03:13:45;;;;;;;0.57;0.20;;;13.10;99.90;;;;;;5095842;28;20204;-60
2022/12/23 03:16:20;;;;;;;0.13;0.13;;;13.20;99.90;;;;;;5095607;28;20291;-60
2022/12/23 03:19:02;;;;;;;1.43;0.20;;;13.20;99.90;;;;;;5095245;28;20233;-60
2022/12/23 03:21:34;;;;;;;0.30;0.20;;;13.20;99.90;;;;;;5095786;28;20286;-60
2022/12/23 03:24:11;;;;;;;0.30;0.10;;;13.20;99.90;;;;;;5096046;28;20208;-60
2022/12/23 03:26:43;;;;;;;0.20;0.20;;;13.30;99.90;;;;;;5095988;28;20311;-60
2022/12/23 03:29:17;;;;;;;0.30;0.10;;;13.30;99.90;;;;;;5095207;28;20239;-60
2022/12/23 03:31:46;;;;;;;0.77;0.20;;;13.30;99.90;;;;;;5095487;28;20234;-59
2022/12/23 03:34:18;;;;;;;0.17;0.17;;;13.40;99.90;;;;;;5095655;28;20236;-60
2022/12/23 03:36:49;;;;;;;0.57;0.20;;;13.50;99.90;;;;;;5095207;28;20567;-60
2022/12/23 03:39:19;;;;;;;0.10;0.10;;;13.50;99.90;;;;;;5095172;28;20315;-60
2022/12/23 03:41:51;;;;;;;0.13;0.10;;;13.50;99.90;;;;;;5095371;28;20202;-60
2022/12/23 03:44:23;;;;;;;0.83;0.20;;;13.50;99.90;;;;;;5095345;28;20706;-60
2022/12/23 03:46:54;;;;;;;0.50;0.10;;;13.60;99.90;;;;;;5095143;28;20211;-60
2022/12/23 03:49:27;;;;;;;0.10;0.10;;;13.60;99.90;;;;;;5093768;28;20248;-60
2022/12/23 03:52:00;;;;;;;0.70;0.20;;;13.50;99.90;;;;;;5095008;28;20224;-60
2022/12/23 03:54:31;;;;;;;0.10;0.10;;;13.60;99.90;;;;;;5095054;28;20274;-60
2022/12/23 03:57:03;;;;;;;2.10;0.10;;;13.60;99.90;;;;;;5094744;28;20666;-60
2022/12/23 03:59:33;;;;;;;0.10;0.10;;;13.60;99.90;;;;;;5094322;28;20699;-60
2022/12/23 04:02:07;;;;;;;0.20;0.10;;;13.60;99.90;;;;;;5094993;28;20569;-60
2022/12/23 04:04:50;;;;;;;0.33;0.20;;;13.60;99.90;;;;;;5094933;28;20656;-60
2022/12/23 04:07:22;;;;;;;0.20;0.10;;;13.60;99.90;;;;;;5094758;28;20204;-60
2022/12/23 04:09:51;;;;;;;0.63;0.30;;;13.60;99.90;;;;;;5094180;28;20228;-60
2022/12/23 04:12:18;;;;;;;0.00;0.00;;;13.60;99.90;;;;;;5095017;28;20262;-60
2022/12/23 04:14:48;;;;;;;0.40;0.20;;;13.60;99.90;;;;;;5094622;28;20647;-61
2022/12/23 04:17:15;;;;;;;0.53;0.10;;;13.60;99.90;;;;;;5094543;28;20204;-61
2022/12/23 04:19:45;;;;;;;0.13;0.13;;;13.70;99.90;;;;;;5093824;28;20216;-61
2022/12/23 04:22:12;;;;;;;1.17;0.40;;;13.70;99.90;;;;;;5094489;28;20669;-61
2022/12/23 04:24:39;;;;;;;0.40;0.20;;;13.70;99.90;;;;;;5094653;28;20204;-61
2022/12/23 04:27:06;;;;;;;0.10;0.10;;;13.70;99.90;;;;;;5094359;28;20303;-61
2022/12/23 04:29:33;;;;;;;0.30;0.20;;;13.80;99.90;;;;;;5094830;28;20239;-61
2022/12/23 04:32:00;;;;;;;0.10;0.10;;;13.80;99.90;;;;;;5095006;28;20235;-61
2022/12/23 04:34:27;;;;;;;0.57;0.20;;;13.90;99.90;;;;;;5094337;28;20266;-61
2022/12/23 04:36:55;;;;;;;2.00;0.40;;;13.80;99.90;;;;;;5094212;28;20208;-61
2022/12/23 04:39:21;;;;;;;0.07;0.07;;;13.90;99.90;;;;;;5093303;28;20228;-61
2022/12/23 04:41:49;;;;;;;0.33;0.20;;;13.90;99.90;;;;;;5094556;28;20204;-61
2022/12/23 04:44:16;;;;;;;4.03;0.40;;;13.90;99.90;;;;;;5094265;28;20205;-61
2022/12/23 04:46:43;;;;;;;0.33;0.33;;;13.90;99.90;;;;;;5093837;28;20235;-61
2022/12/23 04:49:10;;;;;;;0.20;0.20;;;14.00;99.90;;;;;;5093624;28;20232;-61
2022/12/23 04:51:36;;;;;;;0.37;0.10;;;14.00;99.90;;;;;;5094154;28;20215;-61
2022/12/23 04:54:05;;;;;;;0.20;0.17;;;14.00;99.90;;;;;;5094138;28;20219;-61
2022/12/23 04:56:31;;;;;;;0.50;0.20;;;14.00;99.90;;;;;;5093963;28;20212;-61
2022/12/23 04:59:00;;;;;;;0.43;0.20;;;14.10;99.90;;;;;;5093110;28;20228;-61
2022/12/23 05:01:27;;;;;;;2.47;0.30;;;14.10;99.90;;;;;;5092971;28;20204;-63
2022/12/23 05:03:54;;;;;;;2.00;0.47;;;14.10;99.90;;;;;;5093728;28;20230;-61
2022/12/23 05:06:21;;;;;;;1.33;0.40;;;14.10;99.90;;;;;;5093409;28;20208;-61
2022/12/23 05:08:48;;;;;;;1.53;0.30;;;14.20;99.90;;;;;;5092984;28;20204;-61
2022/12/23 05:11:16;;;;;;;1.17;0.73;;;14.20;99.90;;;;;;5093715;28;20200;-61
2022/12/23 05:13:43;;;;;;;1.20;1.00;;;14.20;99.90;;;;;;5093640;28;20220;-61
2022/12/23 05:16:09;;;;;;;0.53;0.40;;;14.20;99.90;;;;;;5093332;28;20213;-61
2022/12/23 05:18:36;;;;;;;2.33;1.77;;;14.20;99.90;;;;;;5092788;28;20208;-61
2022/12/23 05:21:03;;;;;;;1.73;0.60;;;14.10;99.90;;;;;;5093359;28;20211;-61
2022/12/23 05:23:30;;;;;;;0.77;0.30;;;14.10;99.90;;;;;;5093630;28;20208;-61
2022/12/23 05:25:56;;;;;;;1.40;0.50;;;14.10;99.90;;;;;;5093251;28;20220;-61
2022/12/23 05:28:25;;;;;;;1.00;0.63;;;14.10;99.90;;;;;;5092778;28;20231;-61
2022/12/23 05:30:58;;;;;;;2.93;0.60;;;14.10;99.90;;;;;;5093641;28;20236;-61
2022/12/23 05:33:25;;;;;;;0.90;0.47;;;14.10;99.90;;;;;;5092899;28;20615;-61
2022/12/23 05:35:52;;;;;;;1.80;0.47;;;14.10;99.90;;;;;;5093197;28;20630;-60
2022/12/23 05:38:18;;;;;;;0.70;0.30;;;14.10;99.90;;;;;;5092687;28;20265;-61
2022/12/23 05:40:46;;;;;;;0.90;0.73;;;14.10;99.90;;;;;;5092836;28;20772;-60
2022/12/23 05:43:12;;;;;;;0.43;0.40;;;14.10;99.90;;;;;;5093113;28;20236;-61
2022/12/23 05:45:41;;;;;;;0.40;0.40;;;14.10;99.90;;;;;;5092740;28;20265;-60
2022/12/23 05:48:08;;;;;;;0.87;0.60;;;14.10;99.90;;;;;;5092327;28;20200;-61
2022/12/23 05:50:35;;;;;;;1.30;0.60;;;14.10;99.90;;;;;;5092853;28;20220;-61
2022/12/23 05:53:02;;;;;;;0.80;0.60;;;14.20;99.90;;;;;;5093047;28;20597;-60
2022/12/23 05:55:28;;;;;;;0.37;0.37;;;14.20;99.90;;;;;;5092892;28;20212;-61
2022/12/23 05:57:55;;;;;;;2.03;0.70;;;14.20;99.90;;;;;;5092486;28;20211;-61
2022/12/23 06:00:22;;;;;;;1.13;0.53;;;14.20;99.90;;;;;;5092961;28;20593;-60
2022/12/23 06:02:51;;;;;;;0.73;0.50;;;14.20;99.90;;;;;;5092821;28;20294;-61
2022/12/23 06:05:18;;;;;;;2.90;1.80;;;14.20;99.90;;;;;;5093215;28;20545;-61
2022/12/23 06:07:44;;;;;;;3.60;1.13;;;14.20;99.90;;;;;;5092724;28;20295;-61
2022/12/23 06:10:12;;;;;;;4.90;1.40;;;14.20;99.90;;;;;;5092694;28;20224;-61
2022/12/23 06:12:39;;;;;;;2.70;1.83;;;14.10;99.90;;;;;;5092434;28;20219;-60
2022/12/23 06:15:07;;;;;;;2.17;1.10;;;14.10;99.90;;;;;;5092589;28;20272;-61
2022/12/23 06:17:34;;;;;;;3.00;2.70;;;14.10;99.90;;;;;;5093149;28;20208;-60
2022/12/23 06:20:02;;;;;;;3.10;1.87;;;14.10;99.90;;;;;;5092832;28;20239;-60
2022/12/23 06:22:30;;;;;;;2.83;2.10;;;14.10;99.90;;;;;;5093318;28;20672;-60
2022/12/23 06:24:57;;;;;;;3.13;1.50;;;14.20;99.90;;;;;;5093314;28;20658;-60
2022/12/23 06:27:24;;;;;;;2.57;1.00;;;14.20;99.90;;;;;;5093459;28;20295;-60
2022/12/23 06:29:51;;;;;;;3.47;2.23;;;14.20;99.90;;;;;;5092498;28;20300;-60
2022/12/23 06:32:17;;;;;;;0.97;0.80;;;14.20;99.90;;;;;;5093277;28;20257;-61
2022/12/23 06:34:45;;;;;;;1.10;0.80;;;14.20;99.90;;;;;;5093812;28;20319;-60
2022/12/23 06:37:13;;;;;;;2.33;0.93;;;14.20;99.90;;;;;;5093474;28;20212;-61
2022/12/23 06:39:40;;;;;;;2.60;1.07;;;14.10;99.90;;;;;;5093311;28;20230;-60
2022/12/23 06:42:07;;;;;;;5.17;0.90;;;14.20;99.90;;;;;;5093702;28;20211;-60
2022/12/23 06:44:34;;;;;;;1.50;1.20;;;14.10;99.90;;;;;;5094296;28;20637;-60
2022/12/23 06:47:01;;;;;;;1.53;0.90;;;14.20;99.90;;;;;;5094650;28;20208;-60
2022/12/23 06:49:28;;;;;;;5.13;3.70;;;14.20;99.90;;;;;;5094808;28;20228;-60
2022/12/23 06:51:55;;;;;;;4.33;2.23;;;14.20;99.90;;;;;;5094507;28;20201;-60
2022/12/23 06:54:23;;;;;;;0.80;0.80;;;14.20;99.90;;;;;;5094356;28;20277;-61
2022/12/23 06:56:50;;;;;;;1.33;0.80;;;14.20;99.90;;;;;;5094341;28;20200;-61
2022/12/23 06:59:16;;;;;;;5.53;1.77;;;14.20;99.90;;;;;;5093751;28;20228;-60
2022/12/23 07:01:43;;;;;;;1.87;1.30;;;14.20;99.90;;;;;;5094167;28;20212;-60
2022/12/23 07:04:10;;;;;;;6.43;4.30;;;14.20;99.90;;;;;;5093761;28;20638;-61
2022/12/23 07:06:38;;;;;;;6.00;4.67;;;14.20;99.90;;;;;;5093578;28;20291;-61
2022/12/23 07:09:06;;;;;;;3.53;2.87;;;14.20;99.90;;;;;;5092963;28;20228;-60
2022/12/23 07:11:34;;;;;;;4.93;3.50;;;14.30;99.90;;;;;;5093022;28;20231;-61
2022/12/23 07:14:00;;;;;;;5.73;3.17;;;14.30;99.90;;;;;;5093394;28;20225;-61
2022/12/23 07:16:27;;;;;;;1.53;1.23;;;14.30;99.90;;;;;;5092943;28;20833;-61
2022/12/23 07:18:54;;;;;;;3.13;1.07;;;14.30;99.90;;;;;;5092204;28;20284;-61
2022/12/23 07:21:21;;;;;;;2.17;1.60;;;14.30;99.90;;;;;;5092623;28;20211;-61
2022/12/23 07:23:47;;;;;;;4.07;2.07;;;14.40;99.90;;;;;;5092346;28;20620;-60
2022/12/23 07:26:14;;;;;;;2.93;1.10;;;14.40;99.90;;;;;;5096914;28;20212;-60
2022/12/23 07:28:43;;;;;;;1.00;0.90;;;14.40;99.90;;;;;;5097837;28;20212;-60
2022/12/23 07:31:10;;;;;;;3.47;2.97;;;14.30;99.90;;;;;;5070857;22;20256;-60
2022/12/23 07:33:36;;;;;;;4.47;2.40;;;14.30;99.90;;;;;;5051434;28;20225;-61
2022/12/23 07:36:03;;;;;;;2.27;1.37;;;14.20;99.90;;;;;;5054292;28;20252;-60
2022/12/23 07:38:30;;;;;;;2.23;1.00;;;14.20;99.90;;;;;;5053953;28;20201;-60
2022/12/23 07:40:57;;;;;;;2.50;1.57;;;14.20;99.90;;;;;;5054567;28;20231;-60
2022/12/23 07:43:23;;;;;;;2.73;2.37;;;14.20;99.90;;;;;;5054318;28;20205;-60
2022/12/23 07:45:51;;;;;;;9.00;6.83;;;14.20;99.90;;;;;;5054245;28;20205;-59
2022/12/23 07:48:18;;;;;;;1.87;1.63;;;14.20;99.90;;;;;;5053788;28;20258;-59
2022/12/23 07:50:45;;;;;;;2.17;1.60;;;14.30;99.90;;;;;;5054123;28;20229;-60
2022/12/23 07:53:11;;;;;;;2.40;1.67;;;14.30;99.90;;;;;;5054325;28;20700;-60
2022/12/23 07:55:38;;;;;;;2.60;1.70;;;14.30;99.90;;;;;;5054512;28;20214;-60
2022/12/23 07:58:05;;;;;;;1.90;1.30;;;14.30;99.90;;;;;;5053761;28;20214;-60
2022/12/23 08:00:31;;;;;;;2.23;1.90;;;14.40;99.90;;;;;;5053920;28;20704;-61
2022/12/23 08:02:59;;;;;;;3.40;1.80;;;14.40;99.90;;;;;;5053528;28;20224;-61
2022/12/23 08:05:26;;;;;;;3.33;1.77;;;14.40;99.90;;;;;;5053497;28;20248;-60
2022/12/23 08:07:53;;;;;;;2.27;1.87;;;14.40;99.90;;;;;;5053372;28;20803;-60
2022/12/23 08:10:19;;;;;;;1.87;1.70;;;14.30;99.90;;;;;;5053073;28;20739;-61
2022/12/23 08:12:46;;;;;;;2.27;2.00;;;14.30;99.90;;;;;;5053487;28;20696;-61
2022/12/23 08:15:13;;;;;;;2.67;1.70;;;14.00;99.90;;;;;;5053564;28;20212;-60
2022/12/23 08:17:39;;;;;;;1.77;1.63;;;13.90;99.90;;;;;;5053630;28;20210;-61
2022/12/23 08:20:09;;;;;;;2.77;1.63;;;14.00;99.90;;;;;;5052714;28;20708;-61
2022/12/23 08:22:35;;;;;;;6.07;4.37;;;14.10;99.90;;;;;;5053718;28;20212;-61
2022/12/23 08:25:02;;;;;;;3.63;1.97;;;14.20;99.90;;;;;;5053214;28;20201;-60
2022/12/23 08:27:29;;;;;;;2.20;1.50;;;14.20;99.90;;;;;;5053155;28;20216;-60
2022/12/23 08:29:55;;;;;;;1.70;1.60;;;14.00;99.90;;;;;;5052864;28;20666;-61
2022/12/23 08:32:25;;;;;;;2.00;1.60;;;14.10;99.90;;;;;;5053471;28;20263;-62
2022/12/23 08:34:52;;;;;;;2.63;1.80;;;14.10;99.90;;;;;;5053204;28;20230;-59
2022/12/23 08:37:20;;;;;;;2.00;1.80;;;14.20;99.90;;;;;;5053196;28;20216;-59
2022/12/23 08:39:47;;;;;;;3.13;1.90;;;14.30;99.90;;;;;;5052736;28;20229;-59
2022/12/23 08:42:14;;;;;;;3.40;1.90;;;14.50;99.90;;;;;;5053268;28;20248;-58
2022/12/23 08:44:40;;;;;;;2.57;1.80;;;14.60;99.90;;;;;;5053417;28;20212;-59
2022/12/23 08:47:07;;;;;;;2.70;2.00;;;14.70;99.90;;;;;;5053122;28;20229;-59
2022/12/23 08:49:35;;;;;;;2.70;1.77;;;14.60;99.90;;;;;;5052269;28;20229;-59
2022/12/23 08:52:02;;;;;;;4.10;2.20;;;14.50;99.90;;;;;;5052995;28;20220;-59
2022/12/23 08:54:30;;;;;;;2.80;1.70;;;14.50;99.90;;;;;;5053062;28;20236;-61
2022/12/23 08:56:57;;;;;;;1.43;1.03;;;14.60;99.90;;;;;;5052940;28;20630;-58
2022/12/23 08:59:23;;;;;;;1.80;1.07;;;14.60;99.90;;;;;;5052322;28;20713;-59
2022/12/23 09:01:50;;;;;;;0.70;0.70;;;14.70;99.90;;;;;;5052816;28;20568;-58
2022/12/23 09:04:17;;;;;;;0.60;0.50;;;14.80;99.90;;;;;;5053056;28;20255;-59
2022/12/23 09:06:45;;;;;;;0.80;0.63;;;15.00;99.90;;;;;;5052749;28;20205;-59
2022/12/23 09:09:13;;;;;;;0.40;0.40;;;15.10;99.90;;;;;;5052197;28;20288;-60
2022/12/23 09:11:41;;;;;;;2.10;0.70;;;15.20;99.90;;;;;;5052361;28;20263;-59
2022/12/23 09:14:09;;;;;;;0.60;0.50;;;15.30;99.90;;;;;;5052755;28;20808;-60
2022/12/23 09:16:35;;;;;;;1.05;0.88;;;15.40;99.90;;;;;;5052648;28;20214;-60
2022/12/23 09:19:03;;;;;;;1.63;0.70;;;15.50;99.90;;;;;;5052087;28;20206;-59
2022/12/23 09:21:30;;;;;;;1.90;0.73;;;15.60;99.90;;;;;;5052883;28;20734;-61
2022/12/23 09:23:56;;;;;;;2.03;1.10;;;15.60;99.90;;;;;;5052636;28;20307;-60
2022/12/23 09:26:25;;;;;;;2.30;0.77;;;15.60;99.90;;;;;;5052755;28;20205;-59
2022/12/23 09:28:53;;;;;;;1.75;0.70;;;15.60;99.90;;;;;;5051724;28;20343;-61
2022/12/23 09:31:21;;;;;;;1.00;0.70;;;15.60;99.90;;;;;;5052383;28;20291;-60
2022/12/23 09:33:49;;;;;;;1.77;0.93;;;15.70;99.90;;;;;;5052530;28;20280;-61
2022/12/23 09:36:16;;;;;;;2.22;0.70;;;15.60;99.90;;;;;;5052447;28;20210;-60
2022/12/23 09:38:43;;;;;;;1.93;0.70;;;15.60;99.90;;;;;;5051825;28;20583;-59
2022/12/23 09:41:20;;;;;;;1.50;0.82;;;15.60;99.90;;;;;;5052151;28;20291;-60
2022/12/23 09:43:58;;;;;;;2.25;0.73;;;15.70;99.90;;;;;;5052556;28;20206;-59
2022/12/23 09:46:28;;;;;;;1.40;0.80;;;15.80;99.90;;;;;;5052008;28;20212;-63
2022/12/23 09:49:01;;;;;;;2.55;0.95;;;15.70;99.90;;;;;;5050905;28;20259;-59
2022/12/23 09:51:30;;;;;;;2.38;1.00;;;15.80;99.90;;;;;;5051977;28;20641;-59
2022/12/23 09:54:03;;;;;;;2.25;0.80;;;15.90;99.90;;;;;;5051640;28;20221;-59
2022/12/23 09:56:38;;;;;;;3.23;0.83;;;15.90;99.90;;;;;;5051978;28;20206;-59
2022/12/23 09:59:20;;;;;;;2.72;1.42;;;16.00;99.90;;;;;;5051291;28;20209;-59
2022/12/23 10:01:51;;;;;;;1.52;1.30;;;16.00;99.90;;;;;;5051749;28;20209;-59
2022/12/23 10:04:41;;;;;;;4.23;1.73;;;16.00;99.90;;;;;;5051560;28;20669;-59
2022/12/23 10:07:29;;;;;;;4.15;1.15;;;16.10;99.90;;;;;;5051901;28;20209;-59
2022/12/23 10:09:59;;;;;;;2.88;1.33;;;16.20;99.90;;;;;;5050969;28;20232;-60
2022/12/23 10:12:35;;;;;;;3.35;1.30;;;16.30;99.90;;;;;;5051727;28;20209;-59
2022/12/23 10:15:15;;;;;;;1.65;0.90;;;16.30;99.90;;;;;;5051934;28;20259;-59
2022/12/23 10:17:43;;;;;;;1.80;1.15;;;16.40;99.90;;;;;;5051471;28;20205;-60
2022/12/23 10:20:17;;;;;;;2.20;0.98;;;16.40;99.90;;;;;;5050936;28;20605;-59
2022/12/23 10:22:45;;;;;;;2.55;0.70;;;16.60;99.90;;;;;;5051403;28;20205;-60
2022/12/23 10:25:15;;;;;;;2.25;2.00;;;16.50;99.90;;;;;;5051069;28;20214;-60
2022/12/23 10:27:43;;;;;;;1.00;0.60;;;16.50;99.90;;;;;;5051270;28;20823;-59
2022/12/23 10:30:16;;;;;;;0.80;0.60;;;16.50;99.90;;;;;;5050416;28;20324;-58
2022/12/23 10:32:57;;;;;;;2.70;0.90;;;16.40;99.90;;;;;;5033271;28;20217;-59
2022/12/23 10:35:39;;;;;;;3.10;2.50;;;16.40;99.90;;;;;;5051056;28;20324;-58
2022/12/23 10:38:19;;;;;;;2.08;1.27;;;16.40;99.90;;;;;;5051303;28;20666;-59
2022/12/23 10:40:53;;;;;;;1.95;1.55;;;16.30;99.90;;;;;;5051043;28;20237;-59
2022/12/23 10:43:26;;;;;;;3.00;2.20;;;16.20;99.90;;;;;;5051121;28;20216;-59
2022/12/23 10:46:05;;;;;;;2.77;2.30;;;16.30;99.90;;;;;;5050901;28;20228;-59
2022/12/23 10:48:44;;;;;;;2.13;1.00;;;16.30;99.90;;;;;;5050635;28;20221;-59
2022/12/23 10:51:17;;;;;;;0.80;0.80;;;16.40;99.90;;;;;;5051037;28;20225;-59
2022/12/23 10:53:50;;;;;;;1.80;0.93;;;16.40;99.90;;;;;;5051021;28;20210;-59
2022/12/23 10:56:17;;;;;;;4.63;2.23;;;16.40;99.90;;;;;;5050961;28;20201;-59
2022/12/23 10:58:46;;;;;;;2.20;1.33;;;16.50;99.90;;;;;;5050758;28;20202;-59
2022/12/23 11:01:17;;;;;;;2.67;1.00;;;16.50;99.90;;;;;;5054428;28;20225;-59
2022/12/23 11:03:54;;;;;;;2.03;1.30;;;16.50;99.90;;;;;;5055039;28;20213;-58
2022/12/23 11:06:22;;;;;;;2.10;1.38;;;16.40;99.90;;;;;;5054814;28;20255;-59
2022/12/23 11:08:49;;;;;;;1.08;0.90;;;16.30;99.90;;;;;;5054318;28;20205;-60
2022/12/23 11:11:16;;;;;;;2.47;1.42;;;16.20;99.90;;;;;;5055608;28;20222;-59
2022/12/23 11:13:45;;;;;;;1.63;1.20;;;16.20;99.90;;;;;;5054860;28;20742;-58
2022/12/23 11:16:21;;;;;;;1.10;1.00;;;16.20;99.90;;;;;;5055161;28;20618;-58
2022/12/23 11:18:57;;;;;;;3.30;2.20;;;16.10;99.90;;;;;;5054122;28;20209;-58
2022/12/23 11:21:24;;;;;;;2.20;1.30;;;16.10;99.90;;;;;;5054689;28;20234;-58
2022/12/23 11:24:07;;;;;;;3.30;1.38;;;16.10;99.90;;;;;;5054883;28;20236;-58
2022/12/23 11:26:35;;;;;;;6.35;3.50;;;16.10;99.90;;;;;;5054707;28;20205;-58
2022/12/23 11:29:06;;;;;;;7.20;5.07;;;16.10;99.90;;;;;;5054078;28;20495;-58
2022/12/23 11:31:35;;;;;;;7.67;5.03;;;16.10;99.90;;;;;;5054674;28;20599;-58
2022/12/23 11:34:04;;;;;;;3.33;1.77;;;16.10;99.90;;;;;;5054427;28;20205;-58
2022/12/23 11:36:32;;;;;;;1.90;1.30;;;16.10;99.90;;;;;;5054381;28;20263;-59
2022/12/23 11:39:04;;;;;;;2.75;1.02;;;16.10;99.90;;;;;;5054121;28;20256;-58
2022/12/23 11:41:36;;;;;;;2.10;1.77;;;16.00;99.90;;;;;;5055070;28;20209;-59
2022/12/23 11:44:06;;;;;;;2.53;1.20;;;15.90;99.90;;;;;;5054824;28;20239;-58
2022/12/23 11:46:35;;;;;;;1.60;1.20;;;15.80;99.90;;;;;;5055288;28;20546;-59
2022/12/23 11:49:16;;;;;;;2.90;1.40;;;15.80;99.90;;;;;;5054065;28;20248;-59
2022/12/23 11:51:43;;;;;;;3.47;2.03;;;15.80;99.90;;;;;;5054787;28;20205;-59
2022/12/23 11:54:16;;;;;;;2.42;1.50;;;15.80;99.90;;;;;;5054901;28;20225;-60
2022/12/23 11:56:44;;;;;;;1.83;1.53;;;15.80;99.90;;;;;;5054210;28;20753;-59
2022/12/23 11:59:27;;;;;;;1.75;1.20;;;15.80;99.90;;;;;;5053677;28;20263;-59
2022/12/23 12:01:57;;;;;;;2.10;1.30;;;15.70;99.90;;;;;;5054131;28;20206;-59
2022/12/23 12:04:26;;;;;;;2.70;1.37;;;15.70;99.90;;;;;;5054344;28;20615;-60
2022/12/23 12:06:54;;;;;;;3.55;2.20;;;15.60;99.90;;;;;;5053815;28;20287;-59
2022/12/23 12:09:22;;;;;;;2.87;2.03;;;15.60;99.90;;;;;;5052653;28;20251;-59
2022/12/23 12:11:52;;;;;;;2.70;1.87;;;15.60;99.90;;;;;;5053531;28;20304;-59
2022/12/23 12:14:27;;;;;;;2.53;1.50;;;15.60;99.90;;;;;;5054047;28;20303;-60
2022/12/23 12:17:03;;;;;;;3.27;1.60;;;15.60;99.90;;;;;;5053918;28;20280;-61
2022/12/23 12:19:34;;;;;;;1.90;1.13;;;15.60;99.90;;;;;;5053400;28;20225;-60
2022/12/23 12:22:05;;;;;;;1.33;1.20;;;15.60;99.90;;;;;;5053772;28;20657;-60
2022/12/23 12:24:39;;;;;;;2.03;1.50;;;15.60;99.90;;;;;;5053569;28;20665;-61
2022/12/23 12:27:07;;;;;;;1.37;1.20;;;15.70;99.90;;;;;;5053922;28;20210;-61
2022/12/23 12:29:39;;;;;;;1.93;1.30;;;15.60;99.90;;;;;;5053180;28;20299;-61
2022/12/23 12:32:14;;;;;;;2.80;1.37;;;15.50;99.90;;;;;;5053727;28;20633;-60
2022/12/23 12:34:49;;;;;;;1.90;1.30;;;15.50;99.90;;;;;;5053825;28;20292;-61
2022/12/23 12:37:24;;;;;;;1.60;1.10;;;15.60;99.90;;;;;;5053713;28;20205;-60
2022/12/23 12:39:54;;;;;;;1.23;1.00;;;15.60;99.90;;;;;;5052741;28;20225;-61
2022/12/23 12:42:26;;;;;;;3.30;2.17;;;15.50;99.90;;;;;;5053473;28;20674;-61
2022/12/23 12:45:13;;;;;;;1.33;1.07;;;15.60;99.90;;;;;;5053288;28;20262;-61
2022/12/23 12:47:46;;;;;;;2.27;0.80;;;15.60;99.90;;;;;;5053368;28;20217;-61
2022/12/23 12:50:15;;;;;;;1.50;1.20;;;15.70;99.90;;;;;;5052537;28;20717;-60
2022/12/23 12:52:43;;;;;;;2.73;0.90;;;15.80;99.90;;;;;;5053185;28;20255;-61
2022/12/23 12:55:19;;;;;;;4.00;1.27;;;15.80;99.90;;;;;;5052851;28;20226;-60
2022/12/23 12:57:45;;;;;;;1.50;1.30;;;15.90;99.90;;;;;;5053105;28;20216;-60
2022/12/23 13:00:18;;;;;;;1.73;1.00;;;16.00;99.90;;;;;;5052391;28;20233;-61
2022/12/23 13:03:17;;;;;;;1.40;1.08;;;16.10;99.90;;;;;;5052915;28;20209;-60
2022/12/23 13:05:59;;;;;;;1.77;1.20;;;16.20;99.90;;;;;;5052374;28;20586;-59
2022/12/23 13:08:41;;;;;;;1.50;1.10;;;16.10;99.90;;;;;;5052509;28;20209;-60
2022/12/23 13:11:13;;;;;;;2.10;1.77;;;16.00;99.90;;;;;;5052814;28;20226;-60
2022/12/23 13:13:49;;;;;;;2.50;1.50;;;16.00;99.90;;;;;;5052712;28;20665;-60
2022/12/23 13:16:24;;;;;;;2.17;1.40;;;15.90;99.90;;;;;;5052401;28;20654;-59
2022/12/23 13:19:00;;;;;;;2.47;1.10;;;15.90;99.90;;;;;;5052195;28;20259;-61
2022/12/23 13:21:36;;;;;;;1.30;0.93;;;15.90;99.90;;;;;;5052435;28;20695;-62
2022/12/23 13:24:12;;;;;;;2.33;0.90;;;15.90;99.90;;;;;;5052180;28;20205;-61
2022/12/23 13:26:45;;;;;;;3.23;1.00;;;15.80;99.90;;;;;;5052903;28;20267;-60
2022/12/23 13:29:39;;;;;;;2.03;1.07;;;15.80;99.90;;;;;;5051689;28;20673;-61